sensor_id;sensor_type;location;lat;lon;timestamp;pressure;altitude;pressure_sealevel;temperature;humidity
69318;BME280;56457;52.190;4.440;2023-07-30T00:00:58;100962.16;;;18.26;100.00
69318;BME280;56457;52.190;4.440;2023-07-30T00:01:59;100965.63;;;18.28;100.00
69318;BME280;56457;52.190;4.440;2023-07-30T00:02:59;100962.91;;;18.30;100.00
69318;BME280;56457;52.190;4.440;2023-07-30T00:04:00;100962.78;;;18.33;100.00
69318;BME280;56457;52.190;4.440;2023-07-30T00:05:00;100967.91;;;18.38;100.00
69318;BME280;56457;52.190;4.440;2023-07-30T00:06:00;100960.81;;;18.38;100.00
69318;BME280;56457;52.190;4.440;2023-07-30T00:07:01;100967.88;;;18.39;100.00
69318;BME280;56457;52.190;4.440;2023-07-30T00:08:01;100978.50;;;18.39;100.00
69318;BME280;56457;52.190;4.440;2023-07-30T00:09:01;100970.69;;;18.35;100.00
69318;BME280;56457;52.190;4.440;2023-07-30T00:10:02;100973.06;;;18.42;100.00
69318;BME280;56457;52.190;4.440;2023-07-30T00:11:02;100967.75;;;18.42;100.00
69318;BME280;56457;52.190;4.440;2023-07-30T00:12:04;100968.50;;;18.46;100.00
69318;BME280;56457;52.190;4.440;2023-07-30T00:13:04;100971.03;;;18.49;100.00
69318;BME280;56457;52.190;4.440;2023-07-30T00:14:04;100971.16;;;18.46;100.00
69318;BME280;56457;52.190;4.440;2023-07-30T00:15:05;100966.72;;;18.46;100.00
69318;BME280;56457;52.190;4.440;2023-07-30T00:16:05;100966.56;;;18.49;100.00
69318;BME280;56457;52.190;4.440;2023-07-30T00:17:06;100967.16;;;18.58;100.00
69318;BME280;56457;52.190;4.440;2023-07-30T00:18:06;100962.97;;;18.52;100.00
69318;BME280;56457;52.190;4.440;2023-07-30T00:19:06;100961.22;;;18.51;100.00
69318;BME280;56457;52.190;4.440;2023-07-30T00:20:07;100964.34;;;18.39;100.00
69318;BME280;56457;52.190;4.440;2023-07-30T00:21:08;100967.75;;;18.42;100.00
69318;BME280;56457;52.190;4.440;2023-07-30T00:22:08;100968.50;;;18.46;100.00
69318;BME280;56457;52.190;4.440;2023-07-30T00:23:08;100964.78;;;18.50;100.00
69318;BME280;56457;52.190;4.440;2023-07-30T00:24:09;100969.06;;;18.54;100.00
69318;BME280;56457;52.190;4.440;2023-07-30T00:25:09;100967.44;;;18.50;100.00
69318;BME280;56457;52.190;4.440;2023-07-30T00:26:09;100968.50;;;18.46;100.00
69318;BME280;56457;52.190;4.440;2023-07-30T00:27:09;100962.31;;;18.45;100.00
69318;BME280;56457;52.190;4.440;2023-07-30T00:28:10;100968.50;;;18.46;100.00
69318;BME280;56457;52.190;4.440;2023-07-30T00:29:10;100980.09;;;18.43;100.00
69318;BME280;56457;52.190;4.440;2023-07-30T00:30:10;100971.94;;;18.48;100.00
69318;BME280;56457;52.190;4.440;2023-07-30T00:31:11;100972.94;;;18.45;100.00
69318;BME280;56457;52.190;4.440;2023-07-30T00:32:11;100980.78;;;18.48;100.00
69318;BME280;56457;52.190;4.440;2023-07-30T00:33:15;100967.28;;;18.54;100.00
69318;BME280;56457;52.190;4.440;2023-07-30T00:34:16;100969.06;;;18.54;100.00
69318;BME280;56457;52.190;4.440;2023-07-30T00:35:16;100975.41;;;18.50;100.00
69318;BME280;56457;52.190;4.440;2023-07-30T00:36:16;100976.41;;;18.47;100.00
69318;BME280;56457;52.190;4.440;2023-07-30T00:37:16;100979.06;;;18.47;100.00
69318;BME280;56457;52.190;4.440;2023-07-30T00:38:17;100975.41;;;18.50;100.00
69318;BME280;56457;52.190;4.440;2023-07-30T00:39:18;100980.56;;;18.54;100.00
69318;BME280;56457;52.190;4.440;2023-07-30T00:40:18;100978.91;;;18.52;100.00
69318;BME280;56457;52.190;4.440;2023-07-30T00:41:19;100988.53;;;18.54;100.00
69318;BME280;56457;52.190;4.440;2023-07-30T00:42:19;100982.97;;;18.61;100.00
69318;BME280;56457;52.190;4.440;2023-07-30T00:43:19;100993.59;;;18.61;100.00
69318;BME280;56457;52.190;4.440;2023-07-30T00:44:19;100991.59;;;18.67;100.00
69318;BME280;56457;52.190;4.440;2023-07-30T00:45:20;100990.78;;;18.65;100.00
69318;BME280;56457;52.190;4.440;2023-07-30T00:46:20;100985.34;;;18.68;100.00
69318;BME280;56457;52.190;4.440;2023-07-30T00:47:21;100988.19;;;18.64;100.00
69318;BME280;56457;52.190;4.440;2023-07-30T00:48:22;100982.81;;;18.65;100.00
69318;BME280;56457;52.190;4.440;2023-07-30T00:49:22;100988.88;;;18.69;100.00
69318;BME280;56457;52.190;4.440;2023-07-30T00:50:22;100987.97;;;18.70;100.00
69318;BME280;56457;52.190;4.440;2023-07-30T00:51:23;100987.16;;;18.68;100.00
69318;BME280;56457;52.190;4.440;2023-07-30T00:52:24;100981.88;;;18.66;100.00
69318;BME280;56457;52.190;4.440;2023-07-30T00:53:26;100994.94;;;18.72;100.00
69318;BME280;56457;52.190;4.440;2023-07-30T00:54:26;100990.25;;;18.79;100.00
69318;BME280;56457;52.190;4.440;2023-07-30T00:55:27;100977.28;;;18.71;100.00
69318;BME280;56457;52.190;4.440;2023-07-30T00:56:27;100986.97;;;18.72;100.00
69318;BME280;56457;52.190;4.440;2023-07-30T00:57:27;100985.94;;;18.76;100.00
69318;BME280;56457;52.190;4.440;2023-07-30T00:58:28;100983.63;;;18.67;100.00
69318;BME280;56457;52.190;4.440;2023-07-30T00:59:28;100980.16;;;18.65;100.00
69318;BME280;56457;52.190;4.440;2023-07-30T01:00:29;100983.38;;;18.73;100.00
69318;BME280;56457;52.190;4.440;2023-07-30T01:01:30;100988.94;;;18.67;100.00
69318;BME280;56457;52.190;4.440;2023-07-30T01:02:33;100987.84;;;18.73;100.00
69318;BME280;56457;52.190;4.440;2023-07-30T01:03:33;100982.47;;;18.74;100.00
69318;BME280;56457;52.190;4.440;2023-07-30T01:04:35;100989.41;;;18.78;100.00
69318;BME280;56457;52.190;4.440;2023-07-30T01:05:37;100974.38;;;18.77;100.00
69318;BME280;56457;52.190;4.440;2023-07-30T01:06:37;100989.34;;;18.80;100.00
69318;BME280;56457;52.190;4.440;2023-07-30T01:07:38;100988.47;;;18.79;100.00
69318;BME280;56457;52.190;4.440;2023-07-30T01:08:38;100979.78;;;18.76;100.00
69318;BME280;56457;52.190;4.440;2023-07-30T01:09:38;100989.63;;;18.72;100.00
69318;BME280;56457;52.190;4.440;2023-07-30T01:10:39;100982.19;;;18.82;100.00
69318;BME280;56457;52.190;4.440;2023-07-30T01:11:40;100987.38;;;18.85;100.00
69318;BME280;56457;52.190;4.440;2023-07-30T01:12:41;100980.31;;;18.84;100.00
69318;BME280;56457;52.190;4.440;2023-07-30T01:13:42;100986.56;;;18.83;100.00
69318;BME280;56457;52.190;4.440;2023-07-30T01:14:43;100987.38;;;18.85;100.00
69318;BME280;56457;52.190;4.440;2023-07-30T01:15:45;100985.50;;;18.87;100.00
69318;BME280;56457;52.190;4.440;2023-07-30T01:16:45;100980.38;;;18.82;100.00
69318;BME280;56457;52.190;4.440;2023-07-30T01:17:46;100987.53;;;18.80;100.00
69318;BME280;56457;52.190;4.440;2023-07-30T01:18:46;100985.72;;;18.82;100.00
69318;BME280;56457;52.190;4.440;2023-07-30T01:19:46;100983.69;;;18.88;100.00
69318;BME280;56457;52.190;4.440;2023-07-30T01:20:52;100984.63;;;18.87;100.00
69318;BME280;56457;52.190;4.440;2023-07-30T01:21:53;100979.38;;;18.85;100.00
69318;BME280;56457;52.190;4.440;2023-07-30T01:22:53;100984.59;;;18.88;100.00
69318;BME280;56457;52.190;4.440;2023-07-30T01:23:53;100988.47;;;18.79;100.00
69318;BME280;56457;52.190;4.440;2023-07-30T01:24:54;100986.59;;;18.81;100.00
69318;BME280;56457;52.190;4.440;2023-07-30T01:26:04;100976.72;;;18.85;100.00
69318;BME280;56457;52.190;4.440;2023-07-30T01:27:08;100985.72;;;18.82;100.00
69318;BME280;56457;52.190;4.440;2023-07-30T01:28:12;100988.47;;;18.79;100.00
69318;BME280;56457;52.190;4.440;2023-07-30T01:29:21;100991.06;;;18.81;100.00
69318;BME280;56457;52.190;4.440;2023-07-30T01:30:23;100983.84;;;18.85;100.00
69318;BME280;56457;52.190;4.440;2023-07-30T01:31:26;100997.06;;;18.86;100.00
69318;BME280;56457;52.190;4.440;2023-07-30T01:32:27;100991.69;;;18.88;100.00
69318;BME280;56457;52.190;4.440;2023-07-30T01:33:28;100985.47;;;18.89;100.00
69318;BME280;56457;52.190;4.440;2023-07-30T01:34:29;100987.97;;;18.92;100.00
69318;BME280;56457;52.190;4.440;2023-07-30T01:35:30;100993.22;;;18.93;100.00
69318;BME280;56457;52.190;4.440;2023-07-30T01:36:31;100996.03;;;18.90;100.00
69318;BME280;56457;52.190;4.440;2023-07-30T01:37:32;100988.84;;;18.92;100.00
69318;BME280;56457;52.190;4.440;2023-07-30T01:38:33;100983.84;;;18.85;100.00
69318;BME280;56457;52.190;4.440;2023-07-30T01:39:34;100991.91;;;18.81;100.00
69318;BME280;56457;52.190;4.440;2023-07-30T01:40:36;101003.38;;;18.83;100.00
69318;BME280;56457;52.190;4.440;2023-07-30T01:41:36;101000.66;;;18.85;100.00
69318;BME280;56457;52.190;4.440;2023-07-30T01:42:37;100996.34;;;18.82;100.00
69318;BME280;56457;52.190;4.440;2023-07-30T01:43:37;100998.13;;;18.82;100.00
69318;BME280;56457;52.190;4.440;2023-07-30T01:44:37;101001.81;;;18.78;100.00
69318;BME280;56457;52.190;4.440;2023-07-30T01:45:37;100998.31;;;18.77;100.00
69318;BME280;56457;52.190;4.440;2023-07-30T01:46:40;100990.16;;;18.82;100.00
69318;BME280;56457;52.190;4.440;2023-07-30T01:47:40;100999.97;;;18.80;100.00
69318;BME280;56457;52.190;4.440;2023-07-30T01:48:40;100994.66;;;18.80;100.00
69318;BME280;56457;52.190;4.440;2023-07-30T01:49:41;100996.56;;;18.76;100.00
69318;BME280;56457;52.190;4.440;2023-07-30T01:50:41;100997.31;;;18.80;100.00
69318;BME280;56457;52.190;4.440;2023-07-30T01:51:41;101002.78;;;18.75;100.00
69318;BME280;56457;52.190;4.440;2023-07-30T01:52:41;100997.53;;;18.74;100.00
69318;BME280;56457;52.190;4.440;2023-07-30T01:53:42;101002.69;;;18.78;100.00
69318;BME280;56457;52.190;4.440;2023-07-30T01:54:42;101003.56;;;18.79;100.00
69318;BME280;56457;52.190;4.440;2023-07-30T01:55:42;101004.19;;;18.86;100.00
69318;BME280;56457;52.190;4.440;2023-07-30T01:56:43;100999.72;;;18.86;100.00
69318;BME280;56457;52.190;4.440;2023-07-30T01:57:44;100998.00;;;18.85;100.00
69318;BME280;56457;52.190;4.440;2023-07-30T01:58:44;101001.69;;;18.81;100.00
69318;BME280;56457;52.190;4.440;2023-07-30T01:59:44;100998.13;;;18.82;100.00
69318;BME280;56457;52.190;4.440;2023-07-30T02:00:45;101003.47;;;18.80;100.00
69318;BME280;56457;52.190;4.440;2023-07-30T02:01:45;101000.72;;;18.83;100.00
69318;BME280;56457;52.190;4.440;2023-07-30T02:02:45;101000.66;;;18.85;100.00
69318;BME280;56457;52.190;4.440;2023-07-30T02:03:45;100998.84;;;18.86;100.00
69318;BME280;56457;52.190;4.440;2023-07-30T02:04:46;100993.69;;;18.82;100.00
69318;BME280;56457;52.190;4.440;2023-07-30T02:05:46;100999.78;;;18.85;100.00
69318;BME280;56457;52.190;4.440;2023-07-30T02:06:46;100993.72;;;18.81;100.00
69318;BME280;56457;52.190;4.440;2023-07-30T02:07:47;100994.47;;;18.85;100.00
69318;BME280;56457;52.190;4.440;2023-07-30T02:08:47;100990.09;;;18.83;100.00
69318;BME280;56457;52.190;4.440;2023-07-30T02:09:47;100984.78;;;18.83;100.00
69318;BME280;56457;52.190;4.440;2023-07-30T02:10:55;100986.38;;;18.88;100.00
69318;BME280;56457;52.190;4.440;2023-07-30T02:11:55;100991.03;;;18.82;100.00
69318;BME280;56457;52.190;4.440;2023-07-30T02:12:56;100989.91;;;18.88;100.00
69318;BME280;56457;52.190;4.440;2023-07-30T02:13:56;100990.88;;;18.86;100.00
69318;BME280;56457;52.190;4.440;2023-07-30T02:14:56;100995.28;;;18.87;100.00
69318;BME280;56457;52.190;4.440;2023-07-30T02:15:57;100981.28;;;18.81;100.00
69318;BME280;56457;52.190;4.440;2023-07-30T02:16:57;100991.88;;;18.83;100.00
69318;BME280;56457;52.190;4.440;2023-07-30T02:17:57;100988.38;;;18.82;100.00
69318;BME280;56457;52.190;4.440;2023-07-30T02:18:58;100977.59;;;18.86;100.00
69318;BME280;56457;52.190;4.440;2023-07-30T02:19:58;100977.66;;;18.84;100.00
69318;BME280;56457;52.190;4.440;2023-07-30T02:20:58;100979.47;;;18.83;100.00
69318;BME280;56457;52.190;4.440;2023-07-30T02:21:59;100982.84;;;18.87;100.00
69318;BME280;56457;52.190;4.440;2023-07-30T02:22:59;100979.28;;;18.88;100.00
69318;BME280;56457;52.190;4.440;2023-07-30T02:23:59;100982.59;;;18.93;100.00
69318;BME280;56457;52.190;4.440;2023-07-30T02:25:00;100983.34;;;18.97;100.00
69318;BME280;56457;52.190;4.440;2023-07-30T02:26:00;100981.81;;;18.91;100.00
69318;BME280;56457;52.190;4.440;2023-07-30T02:27:00;100982.59;;;18.93;100.00
69318;BME280;56457;52.190;4.440;2023-07-30T02:28:01;100987.91;;;18.93;100.00
69318;BME280;56457;52.190;4.440;2023-07-30T02:29:01;100980.94;;;18.91;100.00
69318;BME280;56457;52.190;4.440;2023-07-30T02:30:02;100969.25;;;18.95;100.00
69318;BME280;56457;52.190;4.440;2023-07-30T02:31:03;100972.56;;;19.00;100.00
69318;BME280;56457;52.190;4.440;2023-07-30T02:32:03;100979.50;;;19.04;100.00
69318;BME280;56457;52.190;4.440;2023-07-30T02:33:03;100974.34;;;19.01;100.00
69318;BME280;56457;52.190;4.440;2023-07-30T02:34:04;100976.25;;;18.97;100.00
69318;BME280;56457;52.190;4.440;2023-07-30T02:35:04;100984.03;;;19.02;100.00
69318;BME280;56457;52.190;4.440;2023-07-30T02:36:04;100977.16;;;18.96;100.00
69318;BME280;56457;52.190;4.440;2023-07-30T02:37:05;100974.69;;;18.92;100.00
69318;BME280;56457;52.190;4.440;2023-07-30T02:38:05;100968.66;;;18.88;100.00
69318;BME280;56457;52.190;4.440;2023-07-30T02:39:06;100968.44;;;18.93;100.00
69318;BME280;56457;52.190;4.440;2023-07-30T02:40:06;100968.34;;;18.96;100.00
69318;BME280;56457;52.190;4.440;2023-07-30T02:41:07;100968.34;;;18.96;100.00
69318;BME280;56457;52.190;4.440;2023-07-30T02:42:07;100967.47;;;18.95;100.00
69318;BME280;56457;52.190;4.440;2023-07-30T02:43:07;100961.47;;;18.90;100.00
69318;BME280;56457;52.190;4.440;2023-07-30T02:44:08;100964.84;;;18.94;100.00
69318;BME280;56457;52.190;4.440;2023-07-30T02:45:08;100960.16;;;19.00;100.00
69318;BME280;56457;52.190;4.440;2023-07-30T02:46:08;100957.56;;;18.99;100.00
69318;BME280;56457;52.190;4.440;2023-07-30T02:47:09;100956.88;;;18.94;100.00
69318;BME280;56457;52.190;4.440;2023-07-30T02:48:09;100952.50;;;18.93;100.00
69318;BME280;56457;52.190;4.440;2023-07-30T02:49:09;100946.91;;;18.99;100.00
69318;BME280;56457;52.190;4.440;2023-07-30T02:50:10;100956.78;;;18.97;100.00
69318;BME280;56457;52.190;4.440;2023-07-30T02:51:10;100952.41;;;18.94;100.00
69318;BME280;56457;52.190;4.440;2023-07-30T02:52:10;100953.34;;;18.93;100.00
69318;BME280;56457;52.190;4.440;2023-07-30T02:53:11;100955.97;;;18.95;100.00
69318;BME280;56457;52.190;4.440;2023-07-30T02:54:11;100950.44;;;18.99;100.00
69318;BME280;56457;52.190;4.440;2023-07-30T02:55:11;100961.03;;;19.01;100.00
69318;BME280;56457;52.190;4.440;2023-07-30T02:56:12;100955.75;;;18.99;100.00
69318;BME280;56457;52.190;4.440;2023-07-30T02:57:12;100957.69;;;18.96;100.00
69318;BME280;56457;52.190;4.440;2023-07-30T02:58:13;100956.88;;;18.94;100.00
69318;BME280;56457;52.190;4.440;2023-07-30T02:59:13;100961.41;;;18.92;100.00
69318;BME280;56457;52.190;4.440;2023-07-30T03:00:13;100954.47;;;18.88;100.00
69318;BME280;56457;52.190;4.440;2023-07-30T03:01:14;100948.41;;;18.84;100.00
69318;BME280;56457;52.190;4.440;2023-07-30T03:02:14;100959.78;;;18.88;100.00
69318;BME280;56457;52.190;4.440;2023-07-30T03:03:16;100949.34;;;18.83;100.00
69318;BME280;56457;52.190;4.440;2023-07-30T03:04:16;100954.72;;;18.81;100.00
69318;BME280;56457;52.190;4.440;2023-07-30T03:05:16;100957.50;;;18.78;100.00
69318;BME280;56457;52.190;4.440;2023-07-30T03:06:17;100958.38;;;18.79;100.00
69318;BME280;56457;52.190;4.440;2023-07-30T03:07:17;100961.88;;;18.79;100.00
69318;BME280;56457;52.190;4.440;2023-07-30T03:08:18;100954.72;;;18.81;100.00
69318;BME280;56457;52.190;4.440;2023-07-30T03:09:18;100957.25;;;18.85;100.00
69318;BME280;56457;52.190;4.440;2023-07-30T03:10:19;100952.97;;;18.80;100.00
69318;BME280;56457;52.190;4.440;2023-07-30T03:11:19;100963.69;;;18.79;100.00
69318;BME280;56457;52.190;4.440;2023-07-30T03:12:19;100950.56;;;18.74;100.00
69318;BME280;56457;52.190;4.440;2023-07-30T03:13:19;100962.19;;;18.72;100.00
69318;BME280;56457;52.190;4.440;2023-07-30T03:14:21;100966.59;;;18.73;100.00
69318;BME280;56457;52.190;4.440;2023-07-30T03:15:22;100965.81;;;18.69;100.00
69318;BME280;56457;52.190;4.440;2023-07-30T03:16:22;100962.38;;;18.67;100.00
69318;BME280;56457;52.190;4.440;2023-07-30T03:17:22;100974.63;;;18.71;100.00
69318;BME280;56457;52.190;4.440;2023-07-30T03:18:22;100956.72;;;18.76;100.00
69318;BME280;56457;52.190;4.440;2023-07-30T03:19:23;100966.41;;;18.77;100.00
69318;BME280;56457;52.190;4.440;2023-07-30T03:20:24;100964.69;;;18.76;100.00
69318;BME280;56457;52.190;4.440;2023-07-30T03:21:24;100960.22;;;18.77;100.00
69318;BME280;56457;52.190;4.440;2023-07-30T03:22:24;100964.78;;;18.73;100.00
69318;BME280;56457;52.190;4.440;2023-07-30T03:23:25;100964.56;;;18.79;100.00
69318;BME280;56457;52.190;4.440;2023-07-30T03:24:25;100961.88;;;18.79;100.00
69318;BME280;56457;52.190;4.440;2023-07-30T03:25:25;100970.88;;;18.77;100.00
69318;BME280;56457;52.190;4.440;2023-07-30T03:26:26;100963.06;;;18.72;100.00
69318;BME280;56457;52.190;4.440;2023-07-30T03:27:26;100960.16;;;18.78;100.00
69318;BME280;56457;52.190;4.440;2023-07-30T03:28:26;100963.69;;;18.79;100.00
69318;BME280;56457;52.190;4.440;2023-07-30T03:29:27;100962.06;;;18.75;100.00
69318;BME280;56457;52.190;4.440;2023-07-30T03:30:27;100960.16;;;18.78;100.00
69318;BME280;56457;52.190;4.440;2023-07-30T03:31:27;100954.84;;;18.78;100.00
69318;BME280;56457;52.190;4.440;2023-07-30T03:32:28;100962.75;;;18.80;100.00
69318;BME280;56457;52.190;4.440;2023-07-30T03:33:28;100962.88;;;18.77;100.00
69318;BME280;56457;52.190;4.440;2023-07-30T03:34:29;100959.22;;;18.79;100.00
69318;BME280;56457;52.190;4.440;2023-07-30T03:35:29;100968.44;;;18.71;100.00
69318;BME280;56457;52.190;4.440;2023-07-30T03:36:29;100965.03;;;18.67;100.00
69318;BME280;56457;52.190;4.440;2023-07-30T03:37:30;100973.78;;;18.69;100.00
69318;BME280;56457;52.190;4.440;2023-07-30T03:38:30;100957.81;;;18.71;100.00
69318;BME280;56457;52.190;4.440;2023-07-30T03:39:31;100967.44;;;18.73;100.00
69318;BME280;56457;52.190;4.440;2023-07-30T03:40:31;100957.50;;;18.78;100.00
69318;BME280;56457;52.190;4.440;2023-07-30T03:41:31;100956.75;;;18.75;100.00
69318;BME280;56457;52.190;4.440;2023-07-30T03:42:32;100972.84;;;18.72;100.00
69318;BME280;56457;52.190;4.440;2023-07-30T03:43:32;100959.53;;;18.72;100.00
69318;BME280;56457;52.190;4.440;2023-07-30T03:44:33;100961.34;;;18.71;100.00
69318;BME280;56457;52.190;4.440;2023-07-30T03:45:33;100953.47;;;18.68;100.00
69318;BME280;56457;52.190;4.440;2023-07-30T03:46:33;100967.78;;;18.64;100.00
69318;BME280;56457;52.190;4.440;2023-07-30T03:47:34;100957.41;;;18.58;100.00
69318;BME280;56457;52.190;4.440;2023-07-30T03:48:34;100965.06;;;18.66;100.00
69318;BME280;56457;52.190;4.440;2023-07-30T03:49:34;100954.44;;;18.66;100.00
69318;BME280;56457;52.190;4.440;2023-07-30T03:50:35;100955.25;;;18.68;100.00
69318;BME280;56457;52.190;4.440;2023-07-30T03:51:35;100957.06;;;18.67;100.00
69318;BME280;56457;52.190;4.440;2023-07-30T03:52:35;100965.13;;;18.64;100.00
69318;BME280;56457;52.190;4.440;2023-07-30T03:53:35;100968.69;;;18.63;100.00
69318;BME280;56457;52.190;4.440;2023-07-30T03:54:36;100958.06;;;18.63;100.00
69318;BME280;56457;52.190;4.440;2023-07-30T03:55:36;100969.53;;;18.65;100.00
69318;BME280;56457;52.190;4.440;2023-07-30T03:56:36;100960.59;;;18.68;100.00
69318;BME280;56457;52.190;4.440;2023-07-30T03:57:37;100959.06;;;18.61;100.00
69318;BME280;56457;52.190;4.440;2023-07-30T03:58:37;100958.28;;;18.59;100.00
69318;BME280;56457;52.190;4.440;2023-07-30T03:59:37;100968.13;;;18.55;100.00
69318;BME280;56457;52.190;4.440;2023-07-30T04:00:38;100964.63;;;18.54;100.00
69318;BME280;56457;52.190;4.440;2023-07-30T04:01:38;100966.31;;;18.57;100.00
69318;BME280;56457;52.190;4.440;2023-07-30T04:02:38;100974.31;;;18.55;100.00
69318;BME280;56457;52.190;4.440;2023-07-30T04:03:38;100964.63;;;18.54;100.00
69318;BME280;56457;52.190;4.440;2023-07-30T04:04:39;100968.28;;;18.52;100.00
69318;BME280;56457;52.190;4.440;2023-07-30T04:05:39;100975.53;;;18.47;100.00
69318;BME280;56457;52.190;4.440;2023-07-30T04:06:39;100975.47;;;18.48;100.00
69318;BME280;56457;52.190;4.440;2023-07-30T04:07:40;100966.66;;;18.48;100.00
69318;BME280;56457;52.190;4.440;2023-07-30T04:08:40;100970.22;;;18.47;100.00
69318;BME280;56457;52.190;4.440;2023-07-30T04:09:40;100971.16;;;18.46;100.00
69318;BME280;56457;52.190;4.440;2023-07-30T04:10:40;100970.34;;;18.44;100.00
69318;BME280;56457;52.190;4.440;2023-07-30T04:11:42;100972.09;;;18.45;100.00
69318;BME280;56457;52.190;4.440;2023-07-30T04:12:42;100968.53;;;18.44;100.00
69318;BME280;56457;52.190;4.440;2023-07-30T04:13:43;100971.09;;;18.47;100.00
69318;BME280;56457;52.190;4.440;2023-07-30T04:14:43;100973.69;;;18.49;100.00
69318;BME280;56457;52.190;4.440;2023-07-30T04:15:43;100962.19;;;18.48;100.00
69318;BME280;56457;52.190;4.440;2023-07-30T04:16:44;100968.38;;;18.49;100.00
69318;BME280;56457;52.190;4.440;2023-07-30T04:17:47;100965.72;;;18.49;100.00
69318;BME280;56457;52.190;4.440;2023-07-30T04:18:47;100966.53;;;18.51;100.00
69318;BME280;56457;52.190;4.440;2023-07-30T04:19:47;100971.09;;;18.47;100.00
69318;BME280;56457;52.190;4.440;2023-07-30T04:20:48;100973.06;;;18.42;100.00
69318;BME280;56457;52.190;4.440;2023-07-30T04:21:48;100971.94;;;18.48;100.00
69318;BME280;56457;52.190;4.440;2023-07-30T04:22:49;100969.19;;;18.51;100.00
69318;BME280;56457;52.190;4.440;2023-07-30T04:23:49;100970.00;;;18.53;100.00
69318;BME280;56457;52.190;4.440;2023-07-30T04:24:49;100974.44;;;18.52;100.00
69318;BME280;56457;52.190;4.440;2023-07-30T04:25:50;100967.44;;;18.50;100.00
69318;BME280;56457;52.190;4.440;2023-07-30T04:26:50;100971.72;;;18.54;100.00
69318;BME280;56457;52.190;4.440;2023-07-30T04:27:50;100962.88;;;18.53;100.00
69318;BME280;56457;52.190;4.440;2023-07-30T04:28:51;100976.25;;;18.52;100.00
69318;BME280;56457;52.190;4.440;2023-07-30T04:29:51;100970.94;;;18.52;100.00
69318;BME280;56457;52.190;4.440;2023-07-30T04:30:51;100966.78;;;18.45;100.00
69318;BME280;56457;52.190;4.440;2023-07-30T04:31:52;100958.56;;;18.51;100.00
69318;BME280;56457;52.190;4.440;2023-07-30T04:32:52;100956.72;;;18.53;100.00
69318;BME280;56457;52.190;4.440;2023-07-30T04:33:52;100954.84;;;18.55;100.00
69318;BME280;56457;52.190;4.440;2023-07-30T04:34:52;100958.50;;;18.52;100.00
69318;BME280;56457;52.190;4.440;2023-07-30T04:35:53;100966.53;;;18.51;100.00
69318;BME280;56457;52.190;4.440;2023-07-30T04:36:53;100965.66;;;18.50;100.00
69318;BME280;56457;52.190;4.440;2023-07-30T04:37:53;100970.09;;;18.50;100.00
69318;BME280;56457;52.190;4.440;2023-07-30T04:38:54;100961.34;;;18.48;100.00
69318;BME280;56457;52.190;4.440;2023-07-30T04:39:54;100965.53;;;18.53;100.00
69318;BME280;56457;52.190;4.440;2023-07-30T04:40:57;100970.00;;;18.53;100.00
69318;BME280;56457;52.190;4.440;2023-07-30T04:41:57;100963.91;;;18.49;100.00
69318;BME280;56457;52.190;4.440;2023-07-30T04:42:57;100969.22;;;18.49;100.00
69318;BME280;56457;52.190;4.440;2023-07-30T04:43:58;100967.28;;;18.54;100.00
69318;BME280;56457;52.190;4.440;2023-07-30T04:44:58;100970.84;;;18.53;100.00
69318;BME280;56457;52.190;4.440;2023-07-30T04:45:58;100971.63;;;18.57;100.00
69318;BME280;56457;52.190;4.440;2023-07-30T04:46:59;100978.66;;;18.58;100.00
69318;BME280;56457;52.190;4.440;2023-07-30T04:47:59;100967.03;;;18.61;100.00
69318;BME280;56457;52.190;4.440;2023-07-30T04:49:01;100975.06;;;18.59;100.00
69318;BME280;56457;52.190;4.440;2023-07-30T04:50:02;100973.97;;;18.65;100.00
69318;BME280;56457;52.190;4.440;2023-07-30T04:51:02;100979.31;;;18.63;100.00
69318;BME280;56457;52.190;4.440;2023-07-30T04:52:03;100973.50;;;18.53;100.00
69318;BME280;56457;52.190;4.440;2023-07-30T04:53:03;100970.84;;;18.53;100.00
69318;BME280;56457;52.190;4.440;2023-07-30T04:54:04;100969.84;;;18.56;100.00
69318;BME280;56457;52.190;4.440;2023-07-30T04:55:04;100968.13;;;18.55;100.00
69318;BME280;56457;52.190;4.440;2023-07-30T04:56:04;100970.69;;;18.58;100.00
69318;BME280;56457;52.190;4.440;2023-07-30T04:57:05;100976.88;;;18.59;100.00
69318;BME280;56457;52.190;4.440;2023-07-30T04:58:05;100976.94;;;18.57;100.00
69318;BME280;56457;52.190;4.440;2023-07-30T04:59:06;100966.34;;;18.55;100.00
69318;BME280;56457;52.190;4.440;2023-07-30T05:00:06;100981.97;;;18.63;100.00
69318;BME280;56457;52.190;4.440;2023-07-30T05:01:07;100980.38;;;18.59;100.00
69318;BME280;56457;52.190;4.440;2023-07-30T05:02:07;100983.03;;;18.59;100.00
69318;BME280;56457;52.190;4.440;2023-07-30T05:03:08;100982.09;;;18.60;100.00
69318;BME280;56457;52.190;4.440;2023-07-30T05:04:10;100978.66;;;18.58;100.00
69318;BME280;56457;52.190;4.440;2023-07-30T05:05:10;100971.63;;;18.57;100.00
69318;BME280;56457;52.190;4.440;2023-07-30T05:06:10;100977.78;;;18.58;100.00
69318;BME280;56457;52.190;4.440;2023-07-30T05:07:10;100971.56;;;18.59;100.00
69318;BME280;56457;52.190;4.440;2023-07-30T05:08:11;100973.22;;;18.61;100.00
69318;BME280;56457;52.190;4.440;2023-07-30T05:09:11;100967.78;;;18.64;100.00
69318;BME280;56457;52.190;4.440;2023-07-30T05:10:11;100977.34;;;18.70;100.00
69318;BME280;56457;52.190;4.440;2023-07-30T05:11:12;100968.59;;;18.66;100.00
69318;BME280;56457;52.190;4.440;2023-07-30T05:12:12;100968.91;;;18.59;100.00
69318;BME280;56457;52.190;4.440;2023-07-30T05:13:12;100982.81;;;18.65;100.00